Share

Oshima, Japan

Oshima (RJTO) Elev 135 ft | 34.78 °N, 139.36 °E | Change Station

Current weather conditions updated 17 minutes ago

Mostly Cloudy
Mostly Cloudy
57 °F
Feels Like 57 °F
N
18
Wind Variable Wind from NE
Sunrise 5:06 AM
Sunset 6:17 PM
Moon Waning Gibbous

Today is forecast to be nearly the same temperature as yesterday. Showers possible tonight.

Pressure 30.01 in
Visibility 6.2 miles
Clouds Scattered Clouds 2000 ft
Mostly Cloudy 5000 ft
Dew Point 45 °F
Humidity 63%
Rainfall 0.00 in
Snow Depth Not available.
UV 6 out of 16
Pollen Not available.
Air Quality Not available.
Flu Activity Not available.
METAR RJTO 190200Z 04016KT 9999 SCT020 BKN050 14/07 Q1016

More Conditions Fewer Conditions

Pressure 30.01 in
Visibility 6.2 miles
Clouds Scattered Clouds 2000 ft
Mostly Cloudy 5000 ft
Dew Point 45 °F
Humidity 63%
Rainfall 0.00 in
Snow Depth Not available.
UV 6 out of 16
Pollen Not available.
Air Quality Not available.
Flu Activity Not available.
METAR RJTO 190200Z 04016KT 9999 SCT020 BKN050 14/07 Q1016

More Conditions Fewer Conditions

10-Day Weather Forecast

Almanac

Astronomy

Apr. 19, 2014 Rise Set
Actual Time 5:06 AM JST 6:17 PM JST
Civil Twilight 4:40 AM JST 6:43 PM JST
Nautical Twilight 4:09 AM JST 7:14 PM JST
Astronomical Twilight 3:37 AM JST 7:47 PM JST
Moon 10:17 PM JST 7:53 AM JST
Length of Visible Light 14h 03m
Length of Day
13h 10m
Tomorrow will be 2m 1s longer.
Waning Gibbous, 84% of the Moon is Illuminated
Apr 18
Waning Gibbous
Apr 22
Last Quarter
Apr 29
New
May 6
First Quarter
May 14
Full

Yesterday's Extremes

Country Highs Country Lows

Community

  • Sunset Silhouettes
    Sunset Silhouettes
  • FL sunset Perico Isle
    FL sunset Perico Isle
  • Cloudy spring view
    Cloudy spring view
  • Old barn
    Old barn
  • What's for Lunch?
    What's for Lunch?

WunderPhotos

Upload Photos

1,702,581 photos uploaded!

WunderBlogs® & News

Nearby

Snow Depth

Not available.

Coastal Water Temperatures

Place Temperature
No Stations Reporting

Earthquake Activity

City Distance Mag. Time & Date
No recent earthquake activity has been reported nearby.
Minimum magnitude displayed is 2.5.

Nearby Weather Stations

There are no personal weather stations in this area.

What do you think?

We're not finished. Please let us know what you like, what you don't like, and what you are still missing.